Rhapsody Of The Seas — C6UA2 — position and weather

sailwx.info

Track history (hours):
 
Tides and Currents Weather Stations Pressure Air Temp Water Temp Dewpoint Dewpoint Depression Visibility Wind Speed Wind Dir Waves Ship Positions

Rhapsody Of The Seas

Last reported at 2018-Aug-15 15:13 UTC. Time now 2018-Aug-16 20:17 UTC.
Position N 37°13' E 024°49'.

Type: Passenger vessel. MMSI: 311805000.

Date/timePositionNaut miles runAvg speedWind from/ knotsBaromVisibWave heightAir tempDewpointWater temp
2018-Aug-15 15:13N 37°13' E 024°49'421.9
2018-Aug-15 15:00N 37°15' E 024°54'1221.4
2018-Aug-15 14:27N 37°22' E 025°06'919.7
2018-Aug-15 14:00N 37°28' E 025°14'4 7.7
2018-Aug-15 13:31N 37°28' E 025°19'1 1.3
2018-Aug-15 13:00N 37°27' E 025°19'0 0.1
2018-Aug-15 12:30N 37°27' E 025°19'0 0.0
2018-Aug-15 12:00N 37°27' E 025°19'0 0.0
2018-Aug-15 11:30N 37°27' E 025°19'0 0.0
2018-Aug-15 11:00N 37°27' E 025°19'0 0.0
2018-Aug-15 10:30N 37°27' E 025°19'0 0.0
2018-Aug-15 10:00N 37°27' E 025°19'0 0.0
2018-Aug-15 09:30N 37°27' E 025°19'0 0.0
2018-Aug-15 09:00N 37°27' E 025°19'0 0.0
2018-Aug-15 08:24N 37°27' E 025°19'0 0.0
2018-Aug-15 08:00N 37°27' E 025°19'0 0.0
2018-Aug-15 07:30N 37°27' E 025°19'0 0.0
2018-Aug-15 07:00N 37°27' E 025°19'0 0.0
2018-Aug-15 06:24N 37°27' E 025°19'0 0.0
2018-Aug-15 06:00N 37°27' E 025°19'0 0.0
2018-Aug-15 05:30N 37°27' E 025°19'0 0.0
2018-Aug-15 05:00N 37°27' E 025°19'0 0.0
2018-Aug-15 04:24N 37°27' E 025°19'0 0.1
2018-Aug-15 04:01N 37°27' E 025°19'1 2.1
2018-Aug-15 03:31N 37°27' E 025°18'611.2
2018-Aug-15 03:00N 37°29' E 025°11'611.5
2018-Aug-15 02:31N 37°31' E 025°04'611.5
2018-Aug-15 02:00N 37°32' E 024°57'611.5
2018-Aug-15 01:30N 37°33' E 024°50'5311.4
2018-Aug-14 20:50N 37°39' E 023°44'411.1
2018-Aug-14 20:30N 37°42' E 023°41'611.7
2018-Aug-14 20:00N 37°48' E 023°38'713.3
2018-Aug-14 19:31N 37°54' E 023°37'3 5.2
2018-Aug-14 19:00N 37°56' E 023°38'0 0.0
2018-Aug-14 18:30N 37°56' E 023°38'0 0.0
2018-Aug-14 18:00N 37°56' E 023°38'0 0.0
2018-Aug-14 17:30N 37°56' E 023°38'0 0.0
2018-Aug-14 17:00N 37°56' E 023°38'0 0.0
2018-Aug-14 16:30N 37°56' E 023°38'0 0.0
2018-Aug-14 16:00N 37°56' E 023°38'0 0.0
2018-Aug-14 15:30N 37°56' E 023°38'0 0.0
2018-Aug-14 15:00N 37°56' E 023°38'0 0.0
2018-Aug-14 14:30N 37°56' E 023°38'0 0.0
2018-Aug-14 14:00N 37°56' E 023°38'0 0.0
2018-Aug-14 13:30N 37°56' E 023°38'0 0.0
2018-Aug-14 13:00N 37°56' E 023°38'0 0.0
2018-Aug-14 12:30N 37°56' E 023°38'0 0.0
2018-Aug-14 12:00N 37°56' E 023°38'0 0.0
2018-Aug-14 11:27N 37°56' E 023°38'0 0.0
2018-Aug-14 11:00N 37°56' E 023°38'0 0.0
2018-Aug-14 10:30N 37°56' E 023°38'0 0.0
2018-Aug-14 10:00N 37°56' E 023°38'0 0.0
2018-Aug-14 09:30N 37°56' E 023°38'0 0.0
2018-Aug-14 08:57N 37°56' E 023°38'0 0.5
2018-Aug-14 08:30N 37°57' E 023°38'3 5.2
2018-Aug-14 08:00N 37°54' E 023°37'816.0
2018-Aug-14 07:31N 37°47' E 023°42'816.4
2018-Aug-14 07:00N 37°40' E 023°45'  
2018-Aug-12 01:00N 43°36' E 014°48'8718.0 290 / 111019.910.8 26.021.824.0
2018-Aug-11 20:10N 44°41' E 013°28'320.0
2018-Aug-11 20:00N 44°44' E 013°25'1120.3
2018-Aug-11 19:28N 44°53' E 013°17'920.2
2018-Aug-11 19:00N 45°00' E 013°08'1020.0
2018-Aug-11 18:30N 45°07' E 012°58'1019.8
2018-Aug-11 18:01N 45°13' E 012°47'1019.7
2018-Aug-11 17:30N 45°20' E 012°36'816.1
2018-Aug-11 17:00N 45°25' E 012°27'3 7.0
2018-Aug-11 16:31N 45°26' E 012°23'3 5.2
2018-Aug-11 16:00N 45°26' E 012°19'1 1.2
2018-Aug-11 15:30N 45°26' E 012°18'0 0.0
2018-Aug-11 15:00N 45°26' E 012°18'0 0.0
2018-Aug-11 14:30N 45°26' E 012°18'0 0.0
2018-Aug-11 14:00N 45°26' E 012°18'0 0.0
2018-Aug-11 13:30N 45°26' E 012°18'0 0.0
2018-Aug-11 13:00N 45°26' E 012°18'0 0.0
2018-Aug-11 12:27N 45°26' E 012°18'0 0.0
2018-Aug-11 12:00N 45°26' E 012°18'0 0.0
2018-Aug-11 11:30N 45°26' E 012°18'0 0.0
2018-Aug-11 11:01N 45°26' E 012°18'0 0.0
2018-Aug-11 10:30N 45°26' E 012°18'0 0.0
2018-Aug-11 10:00N 45°26' E 012°18'0 0.0
2018-Aug-11 09:30N 45°26' E 012°18'0 0.0
2018-Aug-11 09:00N 45°26' E 012°18'0 0.0
2018-Aug-11 08:30N 45°26' E 012°18'0 0.0
2018-Aug-11 08:00N 45°26' E 012°18'0 0.0
2018-Aug-11 07:30N 45°26' E 012°18'0 0.0
2018-Aug-11 07:01N 45°26' E 012°18'0 0.0
2018-Aug-11 06:27N 45°26' E 012°18'0 0.0
2018-Aug-11 06:00N 45°26' E 012°18'0 0.0
2018-Aug-11 05:30N 45°26' E 012°18'0 0.0
2018-Aug-11 05:00N 45°26' E 012°18'0 0.0
2018-Aug-11 04:30N 45°26' E 012°18'1 1.7
2018-Aug-11 03:59N 45°26' E 012°19'2 4.9
2018-Aug-11 03:30N 45°26' E 012°23'4 7.2
2018-Aug-11 03:00N 45°25' E 012°28'815.3
2018-Aug-11 02:30N 45°20' E 012°36'816.3
2018-Aug-11 02:00N 45°14' E 012°45'816.7
2018-Aug-11 01:30N 45°09' E 012°54'917.0
2018-Aug-11 01:00N 45°05' E 013°04'917.1
2018-Aug-11 00:30N 44°60' E 013°14'817.0
2018-Aug-11 00:00N 44°54' E 013°23'916.9
2018-Aug-10 23:30N 44°47' E 013°30'816.9
2018-Aug-10 23:00N 44°40' E 013°37'917.0
2018-Aug-10 22:30N 44°33' E 013°43'917.1
2018-Aug-10 21:59N 44°26' E 013°50'917.1
2018-Aug-10 21:29N 44°19' E 013°57'1417.3
2018-Aug-10 20:41N 44°08' E 014°09'316.9
2018-Aug-10 20:30N 44°06' E 014°12'  
Track history (hours):
 
Tides and Currents Weather Stations Pressure Air Temp Water Temp Dewpoint Dewpoint Depression Visibility Wind Speed Wind Dir Waves Ship Positions

Rhapsody Of The Seas

Last reported at 2018-Aug-15 15:13 UTC. Time now 2018-Aug-16 20:17 UTC.
Position N 37°13' E 024°49'.

Type: Passenger vessel. MMSI: 311805000.

Date/timePositionNaut miles runAvg speedWind from/ knotsBaromVisibWave heightAir tempDewpointWater temp
2018-Aug-15 15:13N 37°13' E 024°49'421.9
2018-Aug-15 15:00N 37°15' E 024°54'1221.4
2018-Aug-15 14:27N 37°22' E 025°06'919.7
2018-Aug-15 14:00N 37°28' E 025°14'4 7.7
2018-Aug-15 13:31N 37°28' E 025°19'1 1.3
2018-Aug-15 13:00N 37°27' E 025°19'0 0.1
2018-Aug-15 12:30N 37°27' E 025°19'0 0.0
2018-Aug-15 12:00N 37°27' E 025°19'0 0.0
2018-Aug-15 11:30N 37°27' E 025°19'0 0.0
2018-Aug-15 11:00N 37°27' E 025°19'0 0.0
2018-Aug-15 10:30N 37°27' E 025°19'0 0.0
2018-Aug-15 10:00N 37°27' E 025°19'0 0.0
2018-Aug-15 09:30N 37°27' E 025°19'0 0.0
2018-Aug-15 09:00N 37°27' E 025°19'0 0.0
2018-Aug-15 08:24N 37°27' E 025°19'0 0.0
2018-Aug-15 08:00N 37°27' E 025°19'0 0.0
2018-Aug-15 07:30N 37°27' E 025°19'0 0.0
2018-Aug-15 07:00N 37°27' E 025°19'0 0.0
2018-Aug-15 06:24N 37°27' E 025°19'0 0.0
2018-Aug-15 06:00N 37°27' E 025°19'0 0.0
2018-Aug-15 05:30N 37°27' E 025°19'0 0.0
2018-Aug-15 05:00N 37°27' E 025°19'0 0.0
2018-Aug-15 04:24N 37°27' E 025°19'0 0.1
2018-Aug-15 04:01N 37°27' E 025°19'1 2.1
2018-Aug-15 03:31N 37°27' E 025°18'611.2
2018-Aug-15 03:00N 37°29' E 025°11'611.5
2018-Aug-15 02:31N 37°31' E 025°04'611.5
2018-Aug-15 02:00N 37°32' E 024°57'611.5
2018-Aug-15 01:30N 37°33' E 024°50'5311.4
2018-Aug-14 20:50N 37°39' E 023°44'411.1
2018-Aug-14 20:30N 37°42' E 023°41'611.7
2018-Aug-14 20:00N 37°48' E 023°38'713.3
2018-Aug-14 19:31N 37°54' E 023°37'3 5.2
2018-Aug-14 19:00N 37°56' E 023°38'0 0.0
2018-Aug-14 18:30N 37°56' E 023°38'0 0.0
2018-Aug-14 18:00N 37°56' E 023°38'0 0.0
2018-Aug-14 17:30N 37°56' E 023°38'0 0.0
2018-Aug-14 17:00N 37°56' E 023°38'0 0.0
2018-Aug-14 16:30N 37°56' E 023°38'0 0.0
2018-Aug-14 16:00N 37°56' E 023°38'0 0.0
2018-Aug-14 15:30N 37°56' E 023°38'0 0.0
2018-Aug-14 15:00N 37°56' E 023°38'0 0.0
2018-Aug-14 14:30N 37°56' E 023°38'0 0.0
2018-Aug-14 14:00N 37°56' E 023°38'0 0.0
2018-Aug-14 13:30N 37°56' E 023°38'0 0.0
2018-Aug-14 13:00N 37°56' E 023°38'0 0.0
2018-Aug-14 12:30N 37°56' E 023°38'0 0.0
2018-Aug-14 12:00N 37°56' E 023°38'0 0.0
2018-Aug-14 11:27N 37°56' E 023°38'0 0.0
2018-Aug-14 11:00N 37°56' E 023°38'0 0.0
2018-Aug-14 10:30N 37°56' E 023°38'0 0.0
2018-Aug-14 10:00N 37°56' E 023°38'0 0.0
2018-Aug-14 09:30N 37°56' E 023°38'0 0.0
2018-Aug-14 08:57N 37°56' E 023°38'0 0.5
2018-Aug-14 08:30N 37°57' E 023°38'3 5.2
2018-Aug-14 08:00N 37°54' E 023°37'816.0
2018-Aug-14 07:31N 37°47' E 023°42'816.4
2018-Aug-14 07:00N 37°40' E 023°45'  
2018-Aug-12 01:00N 43°36' E 014°48'8718.0 290 / 111019.910.8 26.021.824.0
2018-Aug-11 20:10N 44°41' E 013°28'320.0
2018-Aug-11 20:00N 44°44' E 013°25'1120.3
2018-Aug-11 19:28N 44°53' E 013°17'920.2
2018-Aug-11 19:00N 45°00' E 013°08'1020.0
2018-Aug-11 18:30N 45°07' E 012°58'1019.8
2018-Aug-11 18:01N 45°13' E 012°47'1019.7
2018-Aug-11 17:30N 45°20' E 012°36'816.1
2018-Aug-11 17:00N 45°25' E 012°27'3 7.0
2018-Aug-11 16:31N 45°26' E 012°23'3 5.2
2018-Aug-11 16:00N 45°26' E 012°19'1 1.2
2018-Aug-11 15:30N 45°26' E 012°18'0 0.0
2018-Aug-11 15:00N 45°26' E 012°18'0 0.0
2018-Aug-11 14:30N 45°26' E 012°18'0 0.0
2018-Aug-11 14:00N 45°26' E 012°18'0 0.0
2018-Aug-11 13:30N 45°26' E 012°18'0 0.0
2018-Aug-11 13:00N 45°26' E 012°18'0 0.0
2018-Aug-11 12:27N 45°26' E 012°18'0 0.0
2018-Aug-11 12:00N 45°26' E 012°18'0 0.0
2018-Aug-11 11:30N 45°26' E 012°18'0 0.0
2018-Aug-11 11:01N 45°26' E 012°18'0 0.0
2018-Aug-11 10:30N 45°26' E 012°18'0 0.0
2018-Aug-11 10:00N 45°26' E 012°18'0 0.0
2018-Aug-11 09:30N 45°26' E 012°18'0 0.0
2018-Aug-11 09:00N 45°26' E 012°18'0 0.0
2018-Aug-11 08:30N 45°26' E 012°18'0 0.0
2018-Aug-11 08:00N 45°26' E 012°18'0 0.0
2018-Aug-11 07:30N 45°26' E 012°18'0 0.0
2018-Aug-11 07:01N 45°26' E 012°18'0 0.0
2018-Aug-11 06:27N 45°26' E 012°18'0 0.0
2018-Aug-11 06:00N 45°26' E 012°18'0 0.0
2018-Aug-11 05:30N 45°26' E 012°18'0 0.0
2018-Aug-11 05:00N 45°26' E 012°18'0 0.0
2018-Aug-11 04:30N 45°26' E 012°18'1 1.7
2018-Aug-11 03:59N 45°26' E 012°19'2 4.9
2018-Aug-11 03:30N 45°26' E 012°23'4 7.2
2018-Aug-11 03:00N 45°25' E 012°28'815.3
2018-Aug-11 02:30N 45°20' E 012°36'816.3
2018-Aug-11 02:00N 45°14' E 012°45'816.7
2018-Aug-11 01:30N 45°09' E 012°54'917.0
2018-Aug-11 01:00N 45°05' E 013°04'917.1
2018-Aug-11 00:30N 44°60' E 013°14'817.0
2018-Aug-11 00:00N 44°54' E 013°23'916.9
2018-Aug-10 23:30N 44°47' E 013°30'816.9
2018-Aug-10 23:00N 44°40' E 013°37'917.0
2018-Aug-10 22:30N 44°33' E 013°43'917.1
2018-Aug-10 21:59N 44°26' E 013°50'917.1
2018-Aug-10 21:29N 44°19' E 013°57'1417.3
2018-Aug-10 20:41N 44°08' E 014°09'316.9
2018-Aug-10 20:30N 44°06' E 014°12'  

Dump ship's entire track history